Time;durP1;ratioP1;P1;durP2;ratioP2;P2;SDS_P1;SDS_P2;PMS_P1;PMS_P2;Temp;Humidity;BMP_temperature;BMP_pressure;BME280_temperature;BME280_humidity;BME280_pressure;Samples;Min_cycle;Max_cycle;Signal;HPM_P1;HPM_P2
2023/11/13 00:01:16;;;;;;;;;;;;;;;;;;5938940;28;10000119;-78
2023/11/13 00:04:16;;;;;;;;;;;;;;;;;;6276725;28;19974;-78
2023/11/13 00:07:16;;;;;;;;;;;;;;;;;;6295563;28;19951;-78
2023/11/13 00:10:16;;;;;;;;;;;;;;;;;;6285844;28;19913;-78
2023/11/13 00:13:17;;;;;;;;;;;;;;;;;;6286928;28;19916;-78
2023/11/13 00:16:17;;;;;;;;;;;;;;;;;;6297267;28;20020;-78
2023/11/13 00:19:17;;;;;;;;;;;;;;;;;;6296671;28;20467;-78
2023/11/13 00:22:17;;;;;;;;;;;;;;;;;;6295276;28;20317;-78
2023/11/13 00:25:17;;;;;;;;;;;;;;;;;;6282797;28;19916;-78
2023/11/13 00:28:18;;;;;;;;;;;;;;;;;;6279890;28;19912;-78
2023/11/13 00:31:18;;;;;;;;;;;;;;;;;;6296900;28;20045;-78
2023/11/13 00:34:18;;;;;;;;;;;;;;;;;;6278182;28;19924;-78
2023/11/13 00:37:18;;;;;;;;;;;;;;;;;;6294511;28;20378;-78
2023/11/13 00:40:19;;;;;;;;;;;;;;;;;;6297730;28;19920;-78
2023/11/13 00:43:19;;;;;;;;;;;;;;;;;;6293978;28;19966;-78
2023/11/13 00:46:19;;;;;;;;;;;;;;;;;;6279024;28;19959;-78
2023/11/13 00:49:19;;;;;;;;;;;;;;;;;;6292422;28;19916;-78
2023/11/13 00:52:19;;;;;;;;;;;;;;;;;;6289428;28;19936;-78
2023/11/13 00:55:20;;;;;;;;;;;;;;;;;;6279692;28;19913;-78
2023/11/13 00:58:24;;;;;;;;;;;;;;;;;;6274775;28;20273;-79
2023/11/13 01:01:26;;;;;;;;;;;;;;;;;;6275987;28;19912;-78
2023/11/13 01:04:26;;;;;;;;;;;;;;;;;;6275650;28;20288;-82
2023/11/13 01:07:26;;;;;;;;;;;;;;;;;;6277919;28;19912;-80
2023/11/13 01:10:26;;;;;;;;;;;;;;;;;;6276551;28;19921;-80
2023/11/13 01:13:26;;;;;;;;;;;;;;;;;;6279590;28;19916;-80
2023/11/13 01:16:26;;;;;;;;;;;;;;;;;;6282132;28;19912;-80
2023/11/13 01:19:28;;;;;;;;;;;;;;;;;;6279013;28;19921;-80
2023/11/13 01:22:30;;;;;;;;;;;;;;;;;;6272820;28;19920;-82
2023/11/13 01:25:30;;;;;;;;;;;;;;;;;;6284466;28;20392;-80
2023/11/13 01:28:30;;;;;;;;;;;;;;;;;;6269830;28;19921;-80
2023/11/13 01:31:30;;;;;;;;;;;;;;;;;;6273102;28;19999;-80
2023/11/13 01:34:30;;;;;;;;;;;;;;;;;;6272713;28;19928;-80
2023/11/13 01:37:30;;;;;;;;;;;;;;;;;;6275914;28;21352;-80
2023/11/13 01:40:32;;;;;;;;;;;;;;;;;;6280339;28;19920;-80
2023/11/13 01:43:32;;;;;;;;;;;;;;;;;;6282314;28;19926;-80
2023/11/13 01:46:32;;;;;;;;;;;;;;;;;;6282521;28;19978;-84
2023/11/13 01:49:34;;;;;;;;;;;;;;;;;;6280778;28;19966;-82
2023/11/13 01:52:34;;;;;;;;;;;;;;;;;;6280892;28;19916;-80
2023/11/13 01:55:34;;;;;;;;;;;;;;;;;;6278253;28;19916;-80
2023/11/13 01:58:34;;;;;;;;;;;;;;;;;;6279521;28;19924;-81
2023/11/13 02:01:34;;;;;;;;;;;;;;;;;;6294168;28;20440;-81
2023/11/13 02:04:35;;;;;;;;;;;;;;;;;;6277705;28;20426;-80
2023/11/13 02:07:36;;;;;;;;;;;;;;;;;;6278022;28;19951;-81
2023/11/13 02:10:36;;;;;;;;;;;;;;;;;;6277004;28;19913;-81
2023/11/13 02:13:36;;;;;;;;;;;;;;;;;;6276838;28;19966;-81
2023/11/13 02:16:36;;;;;;;;;;;;;;;;;;6277870;28;19912;-80
2023/11/13 02:19:36;;;;;;;;;;;;;;;;;;6278243;28;19927;-81
2023/11/13 02:22:36;;;;;;;;;;;;;;;;;;6278995;28;19916;-80
2023/11/13 02:25:36;;;;;;;;;;;;;;;;;;6290437;28;19917;-83
2023/11/13 02:28:37;;;;;;;;;;;;;;;;;;6279408;28;20342;-80
2023/11/13 02:31:37;;;;;;;;;;;;;;;;;;6277723;28;19944;-81
2023/11/13 02:34:37;;;;;;;;;;;;;;;;;;6275422;28;19920;-81
2023/11/13 02:37:37;;;;;;;;;;;;;;;;;;6277274;28;19928;-84
2023/11/13 02:40:37;;;;;;;;;;;;;;;;;;6278607;28;19971;-81
2023/11/13 02:43:37;;;;;;;;;;;;;;;;;;6291240;28;20003;-86
2023/11/13 02:46:37;;;;;;;;;;;;;;;;;;6277178;28;20303;-81
2023/11/13 02:49:37;;;;;;;;;;;;;;;;;;6276807;28;19913;-82
2023/11/13 02:52:38;;;;;;;;;;;;;;;;;;6281670;28;19912;-86
2023/11/13 02:55:38;;;;;;;;;;;;;;;;;;6277844;28;19913;-80
2023/11/13 02:58:38;;;;;;;;;;;;;;;;;;6280420;28;20013;-81
2023/11/13 03:01:38;;;;;;;;;;;;;;;;;;6277446;28;20361;-81
2023/11/13 03:04:38;;;;;;;;;;;;;;;;;;6276147;28;19921;-81
2023/11/13 03:07:38;;;;;;;;;;;;;;;;;;6274885;28;19920;-81
2023/11/13 03:10:39;;;;;;;;;;;;;;;;;;6274579;28;19927;-80
2023/11/13 03:13:40;;;;;;;;;;;;;;;;;;6275206;28;19920;-81
2023/11/13 03:16:41;;;;;;;;;;;;;;;;;;6276733;28;20381;-80
2023/11/13 03:19:41;;;;;;;;;;;;;;;;;;6274316;28;19954;-81
2023/11/13 03:22:41;;;;;;;;;;;;;;;;;;6275327;28;19925;-80
2023/11/13 03:25:41;;;;;;;;;;;;;;;;;;6277305;28;19917;-85
2023/11/13 03:28:41;;;;;;;;;;;;;;;;;;6276223;28;19920;-81
2023/11/13 03:31:41;;;;;;;;;;;;;;;;;;6276070;28;19919;-80
2023/11/13 03:34:41;;;;;;;;;;;;;;;;;;6280967;28;19921;-81
2023/11/13 03:37:41;;;;;;;;;;;;;;;;;;6278173;28;20399;-81
2023/11/13 03:40:41;;;;;;;;;;;;;;;;;;6275795;28;19925;-83
2023/11/13 03:43:42;;;;;;;;;;;;;;;;;;6276380;28;19913;-80
2023/11/13 03:46:42;;;;;;;;;;;;;;;;;;6276501;28;19923;-81
2023/11/13 03:49:42;;;;;;;;;;;;;;;;;;6277485;28;20358;-82
2023/11/13 03:52:42;;;;;;;;;;;;;;;;;;6275989;28;19913;-81
2023/11/13 03:55:42;;;;;;;;;;;;;;;;;;6276110;28;19916;-85
2023/11/13 03:58:42;;;;;;;;;;;;;;;;;;6273296;28;19932;-81
2023/11/13 04:01:42;;;;;;;;;;;;;;;;;;6277714;28;19913;-81
2023/11/13 04:04:42;;;;;;;;;;;;;;;;;;6274024;28;19916;-84
2023/11/13 04:07:43;;;;;;;;;;;;;;;;;;6272866;28;19917;-83
2023/11/13 04:10:43;;;;;;;;;;;;;;;;;;6271275;28;19916;-84
2023/11/13 04:13:44;;;;;;;;;;;;;;;;;;6270470;28;19923;-81
2023/11/13 04:16:44;;;;;;;;;;;;;;;;;;6274304;28;19927;-85
2023/11/13 04:19:45;;;;;;;;;;;;;;;;;;6273370;28;19924;-80
2023/11/13 04:22:45;;;;;;;;;;;;;;;;;;6275428;28;19916;-83
2023/11/13 04:25:47;;;;;;;;;;;;;;;;;;6289274;28;19917;-80
2023/11/13 04:28:47;;;;;;;;;;;;;;;;;;6276979;28;19935;-80
2023/11/13 04:31:47;;;;;;;;;;;;;;;;;;6272388;28;20556;-82
2023/11/13 04:34:48;;;;;;;;;;;;;;;;;;6276738;28;19912;-81
2023/11/13 04:37:48;;;;;;;;;;;;;;;;;;6275589;28;20016;-84
2023/11/13 04:40:48;;;;;;;;;;;;;;;;;;6276753;28;19929;-81
2023/11/13 04:43:49;;;;;;;;;;;;;;;;;;6274755;28;19944;-80
2023/11/13 04:46:50;;;;;;;;;;;;;;;;;;6273993;28;19912;-81
2023/11/13 04:49:50;;;;;;;;;;;;;;;;;;6276870;28;20385;-81
2023/11/13 04:52:50;;;;;;;;;;;;;;;;;;6272348;28;19919;-81
2023/11/13 04:55:50;;;;;;;;;;;;;;;;;;6271801;28;19920;-84
2023/11/13 04:58:50;;;;;;;;;;;;;;;;;;6272828;28;19920;-84
2023/11/13 05:01:51;;;;;;;;;;;;;;;;;;6272514;28;19951;-82
2023/11/13 05:04:51;;;;;;;;;;;;;;;;;;6273330;28;19929;-82
2023/11/13 05:07:51;;;;;;;;;;;;;;;;;;6274624;28;19920;-81
2023/11/13 05:10:51;;;;;;;;;;;;;;;;;;6275747;28;19920;-81
2023/11/13 05:13:52;;;;;;;;;;;;;;;;;;6273262;28;19913;-81
2023/11/13 05:16:52;;;;;;;;;;;;;;;;;;6272870;28;19919;-81
2023/11/13 05:19:52;;;;;;;;;;;;;;;;;;6270186;28;19921;-81
2023/11/13 05:22:52;;;;;;;;;;;;;;;;;;6276785;28;19928;-80
2023/11/13 05:25:52;;;;;;;;;;;;;;;;;;6273120;28;19988;-81
2023/11/13 05:28:53;;;;;;;;;;;;;;;;;;6273960;28;19974;-81
2023/11/13 05:31:53;;;;;;;;;;;;;;;;;;6278255;28;19958;-80
2023/11/13 05:34:55;;;;;;;;;;;;;;;;;;6275557;28;19913;-80
2023/11/13 05:37:55;;;;;;;;;;;;;;;;;;6275533;28;19927;-81
2023/11/13 05:40:55;;;;;;;;;;;;;;;;;;6285494;28;19928;-81
2023/11/13 05:43:55;;;;;;;;;;;;;;;;;;6276918;28;20296;-82
2023/11/13 05:46:55;;;;;;;;;;;;;;;;;;6277510;28;19917;-80
2023/11/13 05:49:55;;;;;;;;;;;;;;;;;;6269919;28;19912;-82
2023/11/13 05:52:55;;;;;;;;;;;;;;;;;;6270200;28;19923;-85
2023/11/13 05:55:56;;;;;;;;;;;;;;;;;;6277651;28;20407;-80
2023/11/13 05:58:56;;;;;;;;;;;;;;;;;;6273463;28;19920;-80
2023/11/13 06:01:56;;;;;;;;;;;;;;;;;;6281623;28;19948;-81
2023/11/13 06:04:56;;;;;;;;;;;;;;;;;;6273999;28;20378;-81
2023/11/13 06:07:56;;;;;;;;;;;;;;;;;;6272440;28;20020;-80
2023/11/13 06:10:56;;;;;;;;;;;;;;;;;;6273225;28;19951;-81
2023/11/13 06:13:56;;;;;;;;;;;;;;;;;;6277450;28;19958;-80
2023/11/13 06:16:57;;;;;;;;;;;;;;;;;;6274811;28;19917;-81
2023/11/13 06:19:57;;;;;;;;;;;;;;;;;;6274596;28;20328;-80
2023/11/13 06:22:57;;;;;;;;;;;;;;;;;;6277706;28;19960;-80
2023/11/13 06:25:57;;;;;;;;;;;;;;;;;;6294038;28;19916;-80
2023/11/13 06:28:57;;;;;;;;;;;;;;;;;;6281831;28;19913;-80
2023/11/13 06:31:58;;;;;;;;;;;;;;;;;;6286389;28;21344;-80
2023/11/13 06:34:58;;;;;;;;;;;;;;;;;;6277083;28;20301;-81
2023/11/13 06:37:58;;;;;;;;;;;;;;;;;;6284111;28;20037;-81
2023/11/13 06:40:59;;;;;;;;;;;;;;;;;;6278057;28;19927;-80
2023/11/13 06:44:04;;;;;;;;;;;;;;;;;;6279371;28;19913;-80
2023/11/13 06:47:04;;;;;;;;;;;;;;;;;;6276138;28;19916;-83
2023/11/13 06:50:05;;;;;;;;;;;;;;;;;;6278842;28;19966;-80
2023/11/13 06:53:05;;;;;;;;;;;;;;;;;;6277908;28;20003;-80
2023/11/13 06:56:06;;;;;;;;;;;;;;;;;;6277346;28;20380;-80
2023/11/13 06:59:06;;;;;;;;;;;;;;;;;;6295676;28;19974;-79
2023/11/13 07:02:06;;;;;;;;;;;;;;;;;;6279319;28;19913;-80
2023/11/13 07:05:07;;;;;;;;;;;;;;;;;;6276190;28;19919;-79
2023/11/13 07:08:09;;;;;;;;;;;;;;;;;;6280271;28;19917;-79
2023/11/13 07:11:10;;;;;;;;;;;;;;;;;;6275665;28;19966;-79
2023/11/13 07:14:11;;;;;;;;;;;;;;;;;;6303030;28;19961;-79
2023/11/13 07:17:12;;;;;;;;;;;;;;;;;;6293178;28;19912;-79
2023/11/13 07:20:18;;;;;;;;;;;;;;;;;;6277003;28;19966;-79
2023/11/13 07:23:18;;;;;;;;;;;;;;;;;;6308478;28;19912;-79
2023/11/13 07:26:18;;;;;;;;;;;;;;;;;;6287973;28;20305;-78
2023/11/13 07:29:18;;;;;;;;;;;;;;;;;;6293048;28;19912;-79
2023/11/13 07:32:19;;;;;;;;;;;;;;;;;;6298983;28;19908;-79
2023/11/13 07:35:19;;;;;;;;;;;;;;;;;;6279703;28;19908;-78
2023/11/13 07:38:20;;;;;;;;;;;;;;;;;;6293087;28;19920;-79
2023/11/13 07:41:20;;;;;;;;;;;;;;;;;;6287694;28;19920;-79
2023/11/13 07:44:20;;;;;;;;;;;;;;;;;;6287214;28;19920;-79
2023/11/13 07:47:26;;;;;;;;;;;;;;;;;;6279095;28;19951;-78
2023/11/13 07:50:27;;;;;;;;;;;;;;;;;;6285884;28;20376;-79
2023/11/13 07:53:27;;;;;;;;;;;;;;;;;;6297619;28;19912;-78
2023/11/13 07:56:27;;;;;;;;;;;;;;;;;;6278303;28;20297;-79
2023/11/13 07:59:28;;;;;;;;;;;;;;;;;;6277384;28;19924;-78
2023/11/13 08:02:28;;;;;;;;;;;;;;;;;;6278127;28;19916;-78
2023/11/13 08:05:28;;;;;;;;;;;;;;;;;;6275970;28;20015;-79
2023/11/13 08:08:28;;;;;;;;;;;;;;;;;;6285544;28;20417;-79
2023/11/13 08:11:28;;;;;;;;;;;;;;;;;;6280032;28;20285;-78
2023/11/13 08:14:29;;;;;;;;;;;;;;;;;;6271270;28;19916;-78
2023/11/13 08:17:31;;;;;;;;;;;;;;;;;;6289064;28;19924;-78
2023/11/13 08:20:31;;;;;;;;;;;;;;;;;;6291611;28;20027;-79
2023/11/13 08:23:31;;;;;;;;;;;;;;;;;;6293750;28;19913;-80
2023/11/13 08:26:32;;;;;;;;;;;;;;;;;;6289517;28;19917;-78
2023/11/13 08:29:32;;;;;;;;;;;;;;;;;;6278660;28;19909;-78
2023/11/13 08:32:33;;;;;;;;;;;;;;;;;;6277951;28;20369;-78
2023/11/13 08:35:33;;;;;;;;;;;;;;;;;;6281455;28;19920;-78
2023/11/13 08:38:35;;;;;;;;;;;;;;;;;;6299093;28;20374;-78
2023/11/13 08:41:36;;;;;;;;;;;;;;;;;;6297336;28;20000;-78
2023/11/13 08:44:37;;;;;;;;;;;;;;;;;;6284562;28;19912;-78
2023/11/13 08:47:37;;;;;;;;;;;;;;;;;;6293259;28;19913;-78
2023/11/13 08:50:37;;;;;;;;;;;;;;;;;;6287699;28;19997;-78
2023/11/13 08:53:42;;;;;;;;;;;;;;;;;;6276070;28;20323;-78
2023/11/13 08:56:42;;;;;;;;;;;;;;;;;;6279343;28;19935;-79
2023/11/13 08:59:42;;;;;;;;;;;;;;;;;;6297507;28;19916;-84
2023/11/13 09:02:43;;;;;;;;;;;;;;;;;;6297544;28;19974;-82
2023/11/13 09:05:43;;;;;;;;;;;;;;;;;;6287649;28;19912;-79
2023/11/13 09:08:43;;;;;;;;;;;;;;;;;;6286067;28;20376;-80
2023/11/13 09:11:45;;;;;;;;;;;;;;;;;;6273099;28;19934;-79
2023/11/13 09:14:46;;;;;;;;;;;;;;;;;;6287476;28;19917;-82
2023/11/13 09:17:46;;;;;;;;;;;;;;;;;;6282380;28;20003;-79
2023/11/13 09:20:46;;;;;;;;;;;;;;;;;;6287296;28;19939;-79
2023/11/13 09:23:46;;;;;;;;;;;;;;;;;;6294704;28;20376;-79
2023/11/13 09:26:47;;;;;;;;;;;;;;;;;;6280716;28;20293;-79
2023/11/13 09:29:47;;;;;;;;;;;;;;;;;;6295504;28;19915;-81
2023/11/13 09:32:48;;;;;;;;;;;;;;;;;;6297115;28;19908;-80
2023/11/13 09:35:49;;;;;;;;;;;;;;;;;;6295249;28;19951;-79
2023/11/13 09:38:53;;;;;;;;;;;;;;;;;;6293823;28;19921;-80
2023/11/13 09:41:53;;;;;;;;;;;;;;;;;;6297348;28;19909;-79
2023/11/13 09:44:53;;;;;;;;;;;;;;;;;;6296986;28;19932;-80
2023/11/13 09:47:54;;;;;;;;;;;;;;;;;;6283994;28;20360;-80
2023/11/13 09:50:57;;;;;;;;;;;;;;;;;;6294904;28;19931;-78
2023/11/13 09:53:57;;;;;;;;;;;;;;;;;;6306200;28;19913;-79
2023/11/13 09:57:00;;;;;;;;;;;;;;;;;;6297703;28;19916;-79
2023/11/13 10:00:00;;;;;;;;;;;;;;;;;;6303792;28;19920;-79
2023/11/13 10:03:00;;;;;;;;;;;;;;;;;;6317170;28;19924;-79
2023/11/13 10:06:01;;;;;;;;;;;;;;;;;;6305449;28;19908;-78
2023/11/13 10:09:01;;;;;;;;;;;;;;;;;;6294227;28;19913;-78
2023/11/13 10:12:07;;;;;;;;;;;;;;;;;;6296395;28;20010;-78
2023/11/13 10:15:13;;;;;;;;;;;;;;;;;;6280835;28;19912;-79
2023/11/13 10:18:14;;;;;;;;;;;;;;;;;;6287273;28;19913;-79
2023/11/13 10:21:14;;;;;;;;;;;;;;;;;;6292504;28;20277;-79
2023/11/13 10:24:15;;;;;;;;;;;;;;;;;;6285074;28;19955;-79
2023/11/13 10:27:15;;;;;;;;;;;;;;;;;;6301371;28;19940;-79
2023/11/13 10:30:15;;;;;;;;;;;;;;;;;;6295408;28;19935;-80
2023/11/13 10:33:15;;;;;;;;;;;;;;;;;;6296015;28;19994;-80
2023/11/13 10:36:22;;;;;;;;;;;;;;;;;;6291483;28;19913;-80
2023/11/13 10:39:23;;;;;;;;;;;;;;;;;;6298427;28;19955;-82
2023/11/13 10:42:23;;;;;;;;;;;;;;;;;;6301071;28;19918;-81
2023/11/13 10:45:23;;;;;;;;;;;;;;;;;;6295735;28;19919;-81
2023/11/13 10:48:26;;;;;;;;;;;;;;;;;;6298915;28;20332;-80
2023/11/13 10:51:27;;;;;;;;;;;;;;;;;;6300432;28;20361;-80
2023/11/13 10:54:28;;;;;;;;;;;;;;;;;;6295704;28;19920;-80
2023/11/13 10:57:28;;;;;;;;;;;;;;;;;;6310884;28;19912;-81
2023/11/13 11:00:29;;;;;;;;;;;;;;;;;;6325370;28;20356;-80
2023/11/13 11:03:33;;;;;;;;;;;;;;;;;;6325805;28;19912;-80
2023/11/13 11:06:33;;;;;;;;;;;;;;;;;;6288466;28;20000;-83
2023/11/13 11:09:33;;;;;;;;;;;;;;;;;;6289335;28;19909;-80
2023/11/13 11:12:33;;;;;;;;;;;;;;;;;;6304706;28;19935;-81
2023/11/13 11:15:34;;;;;;;;;;;;;;;;;;6308698;28;20284;-80
2023/11/13 11:18:34;;;;;;;;;;;;;;;;;;6287145;28;20331;-80
2023/11/13 11:21:35;;;;;;;;;;;;;;;;;;6296215;28;19920;-83
2023/11/13 11:24:35;;;;;;;;;;;;;;;;;;6298129;28;19916;-81
2023/11/13 11:27:36;;;;;;;;;;;;;;;;;;6292816;28;19913;-79
2023/11/13 11:30:36;;;;;;;;;;;;;;;;;;6285866;28;19927;-79
2023/11/13 11:33:37;;;;;;;;;;;;;;;;;;6297187;28;20377;-79
2023/11/13 11:36:37;;;;;;;;;;;;;;;;;;6296396;28;19916;-80
2023/11/13 11:39:37;;;;;;;;;;;;;;;;;;6313862;28;19920;-79
2023/11/13 11:42:38;;;;;;;;;;;;;;;;;;6297235;28;19912;-80
2023/11/13 11:45:38;;;;;;;;;;;;;;;;;;6279420;28;19964;-79
2023/11/13 11:48:38;;;;;;;;;;;;;;;;;;6296034;28;20009;-80
2023/11/13 11:51:39;;;;;;;;;;;;;;;;;;6312862;28;19916;-81
2023/11/13 11:54:39;;;;;;;;;;;;;;;;;;6309553;28;20323;-81
2023/11/13 11:57:39;;;;;;;;;;;;;;;;;;6281721;28;19909;-82
2023/11/13 12:00:39;;;;;;;;;;;;;;;;;;6299973;28;19946;-81
2023/11/13 12:03:39;;;;;;;;;;;;;;;;;;6297159;28;19913;-81
2023/11/13 12:06:40;;;;;;;;;;;;;;;;;;6296775;28;19916;-81
2023/11/13 12:09:41;;;;;;;;;;;;;;;;;;6314458;28;19954;-81
2023/11/13 12:12:42;;;;;;;;;;;;;;;;;;6290138;28;19916;-85
2023/11/13 12:15:45;;;;;;;;;;;;;;;;;;6273826;28;19939;-82
2023/11/13 12:18:45;;;;;;;;;;;;;;;;;;6273769;28;20003;-83
2023/11/13 12:21:45;;;;;;;;;;;;;;;;;;6298856;28;19927;-80
2023/11/13 12:24:46;;;;;;;;;;;;;;;;;;6298161;28;19928;-80
2023/11/13 12:27:47;;;;;;;;;;;;;;;;;;6298276;28;20303;-81
2023/11/13 12:30:47;;;;;;;;;;;;;;;;;;6297302;28;20431;-80
2023/11/13 12:33:47;;;;;;;;;;;;;;;;;;6280239;28;19913;-80
2023/11/13 12:36:48;;;;;;;;;;;;;;;;;;6290593;28;19912;-80
2023/11/13 12:39:50;;;;;;;;;;;;;;;;;;6277721;28;19921;-80
2023/11/13 12:42:51;;;;;;;;;;;;;;;;;;6288459;28;20358;-81
2023/11/13 12:45:51;;;;;;;;;;;;;;;;;;6294555;28;19950;-80
2023/11/13 12:48:51;;;;;;;;;;;;;;;;;;6297363;28;20007;-79
2023/11/13 12:51:51;;;;;;;;;;;;;;;;;;6314883;28;19912;-80
2023/11/13 12:54:55;;;;;;;;;;;;;;;;;;6292052;28;20003;-79
2023/11/13 12:57:55;;;;;;;;;;;;;;;;;;6284440;28;19916;-80
2023/11/13 13:00:55;;;;;;;;;;;;;;;;;;6291924;28;19976;-79
2023/11/13 13:03:55;;;;;;;;;;;;;;;;;;6294493;28;19923;-81
2023/11/13 13:06:56;;;;;;;;;;;;;;;;;;6294797;28;19920;-80
2023/11/13 13:09:56;;;;;;;;;;;;;;;;;;6282256;28;19920;-79
2023/11/13 13:12:57;;;;;;;;;;;;;;;;;;6277097;28;19939;-79
2023/11/13 13:15:57;;;;;;;;;;;;;;;;;;6293448;28;19927;-80
2023/11/13 13:18:58;;;;;;;;;;;;;;;;;;6296551;28;19916;-81
2023/11/13 13:21:58;;;;;;;;;;;;;;;;;;6284156;28;19923;-80
2023/11/13 13:24:58;;;;;;;;;;;;;;;;;;6288695;28;19962;-80
2023/11/13 13:27:58;;;;;;;;;;;;;;;;;;6309776;28;20000;-80
2023/11/13 13:30:59;;;;;;;;;;;;;;;;;;6282178;28;19913;-80
2023/11/13 13:34:00;;;;;;;;;;;;;;;;;;6283835;28;20281;-81
2023/11/13 13:37:00;;;;;;;;;;;;;;;;;;6288444;28;19913;-80
2023/11/13 13:40:03;;;;;;;;;;;;;;;;;;6301817;28;19972;-80
2023/11/13 13:43:06;;;;;;;;;;;;;;;;;;6285239;28;20178;-80
2023/11/13 13:46:09;;;;;;;;;;;;;;;;;;6298175;28;20418;-80
2023/11/13 13:49:09;;;;;;;;;;;;;;;;;;6284038;28;19962;-80
2023/11/13 13:52:10;;;;;;;;;;;;;;;;;;6290788;28;19957;-80
2023/11/13 13:55:10;;;;;;;;;;;;;;;;;;6301999;28;19908;-80
2023/11/13 13:58:12;;;;;;;;;;;;;;;;;;6302307;28;20380;-79
2023/11/13 14:01:13;;;;;;;;;;;;;;;;;;6287260;28;19917;-80
2023/11/13 14:04:14;;;;;;;;;;;;;;;;;;6291773;28;19952;-81
2023/11/13 14:07:14;;;;;;;;;;;;;;;;;;6279930;28;19970;-83
2023/11/13 14:10:14;;;;;;;;;;;;;;;;;;6285058;28;19920;-83
2023/11/13 14:13:14;;;;;;;;;;;;;;;;;;6285316;28;19962;-80
2023/11/13 14:16:14;;;;;;;;;;;;;;;;;;6302265;28;19939;-80
2023/11/13 14:19:14;;;;;;;;;;;;;;;;;;6294124;28;19920;-80
2023/11/13 14:22:17;;;;;;;;;;;;;;;;;;6300342;28;19916;-80
2023/11/13 14:25:17;;;;;;;;;;;;;;;;;;6301501;28;19913;-80
2023/11/13 14:28:17;;;;;;;;;;;;;;;;;;6301016;28;20001;-80
2023/11/13 14:31:19;;;;;;;;;;;;;;;;;;6295428;28;19913;-80
2023/11/13 14:34:19;;;;;;;;;;;;;;;;;;6281037;28;20026;-81
2023/11/13 14:37:20;;;;;;;;;;;;;;;;;;6287721;28;20262;-80
2023/11/13 14:40:20;;;;;;;;;;;;;;;;;;6275684;28;19928;-80
2023/11/13 14:43:20;;;;;;;;;;;;;;;;;;6296182;28;19912;-80
2023/11/13 14:46:21;;;;;;;;;;;;;;;;;;6311915;28;20375;-80
2023/11/13 14:49:21;;;;;;;;;;;;;;;;;;6308139;28;20015;-80
2023/11/13 14:52:22;;;;;;;;;;;;;;;;;;6314103;28;20269;-87
2023/11/13 14:55:22;;;;;;;;;;;;;;;;;;6302371;28;19914;-82
2023/11/13 14:58:22;;;;;;;;;;;;;;;;;;6293071;28;19920;-81
2023/11/13 15:01:22;;;;;;;;;;;;;;;;;;6298235;28;19916;-80
2023/11/13 15:04:22;;;;;;;;;;;;;;;;;;6300465;28;19913;-81
2023/11/13 15:07:23;;;;;;;;;;;;;;;;;;6289558;28;19920;-84
2023/11/13 15:10:24;;;;;;;;;;;;;;;;;;6287652;28;19917;-80
2023/11/13 15:13:24;;;;;;;;;;;;;;;;;;6275265;28;19908;-80
2023/11/13 15:16:25;;;;;;;;;;;;;;;;;;6286311;28;19966;-80
2023/11/13 15:19:25;;;;;;;;;;;;;;;;;;6295280;28;20507;-81
2023/11/13 15:22:25;;;;;;;;;;;;;;;;;;6308819;28;19955;-80
2023/11/13 15:25:25;;;;;;;;;;;;;;;;;;6275067;28;20385;-82
2023/11/13 15:28:25;;;;;;;;;;;;;;;;;;6281128;28;19943;-80
2023/11/13 15:31:25;;;;;;;;;;;;;;;;;;6275432;28;20392;-80
2023/11/13 15:34:26;;;;;;;;;;;;;;;;;;6274777;28;20019;-80
2023/11/13 15:37:26;;;;;;;;;;;;;;;;;;6279361;28;19995;-80
2023/11/13 15:40:26;;;;;;;;;;;;;;;;;;6274612;28;19931;-79
2023/11/13 15:43:26;;;;;;;;;;;;;;;;;;6284825;28;20395;-79
2023/11/13 15:46:26;;;;;;;;;;;;;;;;;;6301346;28;20423;-79
2023/11/13 15:49:27;;;;;;;;;;;;;;;;;;6299436;28;19913;-80
2023/11/13 15:52:27;;;;;;;;;;;;;;;;;;6309928;28;19970;-79
2023/11/13 15:55:27;;;;;;;;;;;;;;;;;;6297860;28;19948;-79
2023/11/13 15:58:27;;;;;;;;;;;;;;;;;;6295785;28;19917;-81
2023/11/13 16:01:27;;;;;;;;;;;;;;;;;;6280387;28;20285;-80
2023/11/13 16:04:27;;;;;;;;;;;;;;;;;;6302912;28;19916;-82
2023/11/13 16:07:28;;;;;;;;;;;;;;;;;;6286247;28;19971;-79
2023/11/13 16:10:28;;;;;;;;;;;;;;;;;;6286075;28;19912;-80
2023/11/13 16:13:30;;;;;;;;;;;;;;;;;;6280607;28;19917;-81
2023/11/13 16:16:30;;;;;;;;;;;;;;;;;;6282218;28;20011;-80
2023/11/13 16:19:30;;;;;;;;;;;;;;;;;;6294616;28;19986;-80
2023/11/13 16:22:31;;;;;;;;;;;;;;;;;;6297638;28;19920;-79
2023/11/13 16:25:32;;;;;;;;;;;;;;;;;;6293896;28;19914;-79
2023/11/13 16:28:32;;;;;;;;;;;;;;;;;;6288357;28;19935;-79
2023/11/13 16:31:32;;;;;;;;;;;;;;;;;;6280432;28;19913;-79
2023/11/13 16:34:32;;;;;;;;;;;;;;;;;;6277887;28;19977;-79
2023/11/13 16:37:33;;;;;;;;;;;;;;;;;;6297783;28;20365;-79
2023/11/13 16:40:34;;;;;;;;;;;;;;;;;;6303996;28;19947;-79
2023/11/13 16:43:34;;;;;;;;;;;;;;;;;;6289799;28;19920;-79
2023/11/13 16:46:35;;;;;;;;;;;;;;;;;;6297933;28;19908;-83
2023/11/13 16:49:35;;;;;;;;;;;;;;;;;;6294670;28;20009;-79
2023/11/13 16:52:35;;;;;;;;;;;;;;;;;;6296432;28;19916;-78
2023/11/13 16:55:36;;;;;;;;;;;;;;;;;;6289375;28;20190;-78
2023/11/13 16:58:36;;;;;;;;;;;;;;;;;;6297758;28;19916;-78
2023/11/13 17:01:36;;;;;;;;;;;;;;;;;;6282280;28;20020;-78
2023/11/13 17:04:36;;;;;;;;;;;;;;;;;;6291267;28;19981;-79
2023/11/13 17:07:36;;;;;;;;;;;;;;;;;;6282471;28;20062;-79
2023/11/13 17:10:40;;;;;;;;;;;;;;;;;;6296388;28;19973;-79
2023/11/13 17:13:40;;;;;;;;;;;;;;;;;;6300837;28;19974;-80
2023/11/13 17:16:41;;;;;;;;;;;;;;;;;;6278767;28;20357;-80
2023/11/13 17:19:41;;;;;;;;;;;;;;;;;;6280288;28;20019;-81
2023/11/13 17:22:41;;;;;;;;;;;;;;;;;;6278419;28;19962;-84
2023/11/13 17:25:41;;;;;;;;;;;;;;;;;;6288203;28;19994;-81
2023/11/13 17:28:41;;;;;;;;;;;;;;;;;;6291089;28;20015;-79
2023/11/13 17:31:41;;;;;;;;;;;;;;;;;;6302461;28;19958;-82
2023/11/13 17:34:41;;;;;;;;;;;;;;;;;;6305618;28;19908;-80
2023/11/13 17:37:42;;;;;;;;;;;;;;;;;;6305452;28;19966;-80
2023/11/13 17:40:42;;;;;;;;;;;;;;;;;;6297150;28;19920;-81
2023/11/13 17:43:42;;;;;;;;;;;;;;;;;;6282620;28;19917;-81
2023/11/13 17:46:43;;;;;;;;;;;;;;;;;;6282559;28;19923;-82
2023/11/13 17:49:43;;;;;;;;;;;;;;;;;;6280709;28;19970;-83
2023/11/13 17:52:43;;;;;;;;;;;;;;;;;;6295526;28;20305;-83
2023/11/13 17:55:43;;;;;;;;;;;;;;;;;;6285040;28;19920;-83
2023/11/13 17:58:44;;;;;;;;;;;;;;;;;;6297162;28;19948;-81
2023/11/13 18:01:44;;;;;;;;;;;;;;;;;;6291806;28;19963;-83
2023/11/13 18:04:44;;;;;;;;;;;;;;;;;;6297610;28;19917;-82
2023/11/13 18:07:45;;;;;;;;;;;;;;;;;;6279619;28;20372;-81
2023/11/13 18:10:46;;;;;;;;;;;;;;;;;;6286378;28;19924;-81
2023/11/13 18:13:46;;;;;;;;;;;;;;;;;;6283144;28;19913;-81
2023/11/13 18:16:46;;;;;;;;;;;;;;;;;;6277716;28;19944;-82
2023/11/13 18:19:47;;;;;;;;;;;;;;;;;;6289014;28;20404;-83
2023/11/13 18:22:48;;;;;;;;;;;;;;;;;;6284011;28;20381;-86
2023/11/13 18:25:48;;;;;;;;;;;;;;;;;;6278812;28;19925;-83
2023/11/13 18:28:48;;;;;;;;;;;;;;;;;;6283389;28;19982;-85
2023/11/13 18:31:48;;;;;;;;;;;;;;;;;;6282656;28;20369;-83
2023/11/13 18:34:48;;;;;;;;;;;;;;;;;;6278987;28;20353;-87
2023/11/13 18:37:50;;;;;;;;;;;;;;;;;;6281611;28;19928;-88
2023/11/13 18:40:50;;;;;;;;;;;;;;;;;;6282693;28;19925;-84
2023/11/13 18:43:50;;;;;;;;;;;;;;;;;;6297767;28;20491;-84
2023/11/13 18:46:50;;;;;;;;;;;;;;;;;;6281495;28;19913;-85
2023/11/13 18:49:50;;;;;;;;;;;;;;;;;;6278968;28;19913;-86
2023/11/13 18:52:50;;;;;;;;;;;;;;;;;;6264464;28;19912;-86
2023/11/13 18:55:50;;;;;;;;;;;;;;;;;;6281438;28;19961;-92
2023/11/13 18:58:51;;;;;;;;;;;;;;;;;;6283226;28;19925;-90
2023/11/13 19:01:51;;;;;;;;;;;;;;;;;;6298426;28;19913;-91
2023/11/13 19:04:51;;;;;;;;;;;;;;;;;;6280016;28;19912;-91
2023/11/13 19:07:52;;;;;;;;;;;;;;;;;;6301823;28;19920;-90
2023/11/13 19:10:55;;;;;;;;;;;;;;;;;;6282023;28;19955;-91
2023/11/13 19:13:56;;;;;;;;;;;;;;;;;;6284590;28;20021;-91
2023/11/13 19:16:59;;;;;;;;;;;;;;;;;;6304463;28;19913;-91
2023/11/13 19:20:00;;;;;;;;;;;;;;;;;;6285851;28;19924;-92
2023/11/13 19:23:02;;;;;;;;;;;;;;;;;;6279818;28;20361;-91
2023/11/13 19:26:03;;;;;;;;;;;;;;;;;;6281487;28;20004;-91
2023/11/13 19:29:04;;;;;;;;;;;;;;;;;;6285709;28;19916;-91
2023/11/13 19:32:04;;;;;;;;;;;;;;;;;;6278939;28;19920;-92
2023/11/13 19:35:06;;;;;;;;;;;;;;;;;;6279089;28;19919;-91
2023/11/13 19:38:06;;;;;;;;;;;;;;;;;;5930505;28;10000543;-91
2023/11/13 19:41:06;;;;;;;;;;;;;;;;;;6282526;28;19932;-91
2023/11/13 19:44:06;;;;;;;;;;;;;;;;;;6281386;28;19920;-91
2023/11/13 19:47:06;;;;;;;;;;;;;;;;;;6282256;28;19920;-91
2023/11/13 19:50:07;;;;;;;;;;;;;;;;;;6297085;28;19935;-92
2023/11/13 19:53:07;;;;;;;;;;;;;;;;;;6279349;28;19917;-92
2023/11/13 19:56:07;;;;;;;;;;;;;;;;;;6289327;28;19927;-92
2023/11/13 19:59:08;;;;;;;;;;;;;;;;;;6272773;28;19928;-86
2023/11/13 20:02:08;;;;;;;;;;;;;;;;;;6281362;28;19965;-83
2023/11/13 20:05:08;;;;;;;;;;;;;;;;;;5943951;28;10000617;-83
2023/11/13 20:08:09;;;;;;;;;;;;;;;;;;6279270;28;19924;-84
2023/11/13 20:11:09;;;;;;;;;;;;;;;;;;6272516;28;19920;-83
2023/11/13 20:14:09;;;;;;;;;;;;;;;;;;6274870;28;19913;-83
2023/11/13 20:17:11;;;;;;;;;;;;;;;;;;6285211;28;19912;-83
2023/11/13 20:20:11;;;;;;;;;;;;;;;;;;6280583;28;19924;-83
2023/11/13 20:23:11;;;;;;;;;;;;;;;;;;6277657;28;19912;-83
2023/11/13 20:26:13;;;;;;;;;;;;;;;;;;6276911;28;20389;-83
2023/11/13 20:29:13;;;;;;;;;;;;;;;;;;6279246;28;19917;-83
2023/11/13 20:32:13;;;;;;;;;;;;;;;;;;6278090;28;19966;-83